createdAt,value
2022-12-20T00:01:57.033Z,101496.19
2022-12-20T00:04:25.328Z,101489.28
2022-12-20T00:06:53.076Z,101493.53
2022-12-20T00:09:25.702Z,101486.69
2022-12-20T00:11:54.093Z,101478.16
2022-12-20T00:14:22.168Z,101467.75
2022-12-20T00:16:50.005Z,101454.09
2022-12-20T00:19:21.507Z,101454.91
2022-12-20T00:21:52.458Z,101449.06
2022-12-20T00:24:25.899Z,101464.41
2022-12-20T00:26:54.852Z,101455.75
2022-12-20T00:29:23.035Z,101482.38
2022-12-20T00:31:51.018Z,101460.09
2022-12-20T00:34:19.367Z,101471.16
2022-12-20T00:36:47.591Z,101469.56
2022-12-20T00:39:15.362Z,101454.00
2022-12-20T00:41:43.220Z,101452.28
2022-12-20T00:44:11.594Z,101441.19
2022-12-20T00:46:42.309Z,101448.00
2022-12-20T00:49:10.596Z,101451.41
2022-12-20T00:51:39.061Z,101449.69
2022-12-20T00:54:07.007Z,101443.66
2022-12-20T00:56:34.945Z,101447.31
2022-12-20T00:59:03.265Z,101457.53
2022-12-20T01:01:35.224Z,101449.84
2022-12-20T01:04:04.539Z,101449.84
2022-12-20T01:06:33.293Z,101441.97
2022-12-20T01:09:05.569Z,101453.94
2022-12-20T01:11:36.330Z,101457.44
2022-12-20T01:14:14.993Z,101443.69
2022-12-20T01:16:46.130Z,101426.66
2022-12-20T01:19:17.153Z,101423.06
2022-12-20T01:21:46.330Z,101414.50
2022-12-20T01:24:16.761Z,101411.16
2022-12-20T01:26:45.447Z,101405.03
2022-12-20T01:29:14.372Z,101401.72
2022-12-20T01:31:46.396Z,101403.41
2022-12-20T01:34:14.616Z,101389.81
2022-12-20T01:36:42.834Z,101388.88
2022-12-20T01:39:16.291Z,101396.63
2022-12-20T01:41:45.843Z,101388.94
2022-12-20T01:44:19.796Z,101391.38
2022-12-20T01:46:49.376Z,101400.03
2022-12-20T01:49:23.157Z,101395.69
2022-12-20T01:52:06.393Z,101393.91
2022-12-20T01:54:50.250Z,101379.31
2022-12-20T01:57:31.928Z,101400.84
2022-12-20T01:59:59.925Z,101418.69
2022-12-20T02:02:28.485Z,101428.19
2022-12-20T02:04:56.885Z,101425.56
2022-12-20T02:07:28.841Z,101420.56
2022-12-20T02:09:59.217Z,101397.28
2022-12-20T02:12:39.097Z,101369.97
2022-12-20T02:15:18.135Z,101364.88
2022-12-20T02:18:00.243Z,101366.66
2022-12-20T02:20:46.497Z,101401.59
2022-12-20T02:23:46.311Z,101398.12
2022-12-20T02:26:43.026Z,101398.91
2022-12-20T02:29:24.183Z,101388.81
2022-12-20T02:32:16.845Z,101387.22
2022-12-20T02:34:45.271Z,101363.19
2022-12-20T02:37:13.545Z,101393.81
2022-12-20T02:39:44.461Z,101387.97
2022-12-20T02:42:21.889Z,101370.94
2022-12-20T02:45:14.620Z,101380.34
2022-12-20T02:48:08.401Z,101379.47
2022-12-20T02:50:46.771Z,101374.19
2022-12-20T02:53:15.412Z,101376.81
2022-12-20T02:55:56.074Z,101371.75
2022-12-20T02:58:44.871Z,101364.97
2022-12-20T03:01:29.276Z,101371.69
2022-12-20T03:03:59.193Z,101358.87
2022-12-20T03:06:31.146Z,101365.84
2022-12-20T03:08:58.861Z,101362.25
2022-12-20T03:11:27.936Z,101357.94
2022-12-20T03:13:56.045Z,101362.25
2022-12-20T03:16:26.862Z,101362.09
2022-12-20T03:18:55.125Z,101362.19
2022-12-20T03:21:23.118Z,101358.72
2022-12-20T03:23:50.966Z,101368.94
2022-12-20T03:26:19.356Z,101358.56
2022-12-20T03:28:48.172Z,101353.22
2022-12-20T03:31:16.288Z,101339.47
2022-12-20T03:33:44.819Z,101354.03
2022-12-20T03:36:12.929Z,101339.41
2022-12-20T03:38:41.744Z,101338.44
2022-12-20T03:41:10.360Z,101327.19
2022-12-20T03:43:38.385Z,101332.91
2022-12-20T03:46:06.594Z,101310.06
2022-12-20T03:48:35.317Z,101310.81
2022-12-20T03:51:03.261Z,101313.03
2022-12-20T03:53:31.433Z,101305.28
2022-12-20T03:56:02.936Z,101302.25
2022-12-20T03:58:30.752Z,101301.03
2022-12-20T04:00:58.738Z,101303.25
2022-12-20T04:03:28.684Z,101304.09
2022-12-20T04:05:56.928Z,101302.28
2022-12-20T04:08:25.044Z,101298.50
2022-12-20T04:11:12.499Z,101290.94
2022-12-20T04:13:55.176Z,101286.66
2022-12-20T04:16:28.455Z,101278.69
2022-12-20T04:18:56.804Z,101284.78
2022-12-20T04:21:28.529Z,101276.00
2022-12-20T04:23:57.714Z,101277.72
2022-12-20T04:26:27.361Z,101273.34
2022-12-20T04:28:56.891Z,101266.81
2022-12-20T04:31:25.292Z,101263.19
2022-12-20T04:33:54.191Z,101264.44
2022-12-20T04:36:25.513Z,101256.12
2022-12-20T04:38:55.361Z,101252.22
2022-12-20T04:41:23.437Z,101259.03
2022-12-20T04:43:54.429Z,101255.41
2022-12-20T04:46:24.729Z,101255.81
2022-12-20T04:48:58.974Z,101248.53
2022-12-20T04:51:28.995Z,101260.28
2022-12-20T04:53:57.114Z,101253.28
2022-12-20T04:56:28.696Z,101245.25
2022-12-20T04:58:59.159Z,101248.34
2022-12-20T05:01:28.102Z,101244.25
2022-12-20T05:03:56.489Z,101243.66
2022-12-20T05:06:26.822Z,101243.69
2022-12-20T05:08:55.553Z,101227.91
2022-12-20T05:11:23.632Z,101248.22
2022-12-20T05:13:51.951Z,101251.44
2022-12-20T05:16:21.339Z,101249.78
2022-12-20T05:18:49.983Z,101254.19
2022-12-20T05:21:38.197Z,101248.50
2022-12-20T05:24:25.539Z,101243.16
2022-12-20T05:26:54.692Z,101238.59
2022-12-20T05:29:22.456Z,101244.34
2022-12-20T05:31:50.679Z,101239.50
2022-12-20T05:34:18.968Z,101230.84
2022-12-20T05:36:47.999Z,101231.34
2022-12-20T05:39:18.749Z,101211.56
2022-12-20T05:41:48.816Z,101227.13
2022-12-20T05:44:17.781Z,101216.78
2022-12-20T05:46:48.278Z,101216.87
2022-12-20T05:49:16.731Z,101213.66
2022-12-20T05:51:45.765Z,101224.88
2022-12-20T05:54:16.818Z,101214.00
2022-12-20T05:56:45.568Z,101209.09
2022-12-20T05:59:18.114Z,101205.16
2022-12-20T06:01:47.343Z,101197.19
2022-12-20T06:04:16.276Z,101199.25
2022-12-20T06:06:45.988Z,101187.94
2022-12-20T06:09:16.271Z,101190.72
2022-12-20T06:11:45.049Z,101190.44
2022-12-20T06:14:14.097Z,101186.53
2022-12-20T06:16:47.648Z,101188.94
2022-12-20T06:19:21.135Z,101178.19
2022-12-20T06:21:51.099Z,101177.44
2022-12-20T06:24:19.820Z,101179.28
2022-12-20T06:26:49.292Z,101175.84
2022-12-20T06:29:21.202Z,101168.03
2022-12-20T06:31:50.347Z,101180.03
2022-12-20T06:34:19.526Z,101173.41
2022-12-20T06:36:47.818Z,101174.50
2022-12-20T06:39:19.821Z,101170.72
2022-12-20T06:41:48.607Z,101180.09
2022-12-20T06:44:17.545Z,101155.84
2022-12-20T06:46:45.570Z,101155.03
2022-12-20T06:49:14.757Z,101159.19
2022-12-20T06:51:43.237Z,101157.47
2022-12-20T06:54:12.761Z,101148.03
2022-12-20T06:56:41.689Z,101148.91
2022-12-20T06:59:09.955Z,101154.72
2022-12-20T07:01:40.780Z,101148.19
2022-12-20T07:04:09.050Z,101147.75
2022-12-20T07:06:37.061Z,101143.28
2022-12-20T07:09:04.905Z,101133.94
2022-12-20T07:11:32.988Z,101137.25
2022-12-20T07:14:01.413Z,101147.19
2022-12-20T07:16:29.423Z,101147.81
2022-12-20T07:18:57.558Z,101149.44
2022-12-20T07:21:25.475Z,101131.31
2022-12-20T07:23:55.671Z,101128.84
2022-12-20T07:26:23.826Z,101131.31
2022-12-20T07:28:51.557Z,101135.63
2022-12-20T07:31:19.444Z,101125.41
2022-12-20T07:33:47.665Z,101123.00
2022-12-20T07:36:18.810Z,101123.78
2022-12-20T07:38:47.092Z,101116.25
2022-12-20T07:41:18.466Z,101115.31
2022-12-20T07:43:46.395Z,101105.13
2022-12-20T07:46:15.806Z,101094.13
2022-12-20T07:48:44.902Z,101094.03
2022-12-20T07:51:38.701Z,101087.22
2022-12-20T07:54:32.944Z,101094.87
2022-12-20T07:57:07.129Z,101088.69
2022-12-20T07:59:45.127Z,101072.97
2022-12-20T08:02:24.969Z,101055.06
2022-12-20T08:04:55.823Z,101046.59
2022-12-20T08:07:25.113Z,101047.44
2022-12-20T08:09:53.333Z,101036.38
2022-12-20T08:12:26.317Z,101021.97
2022-12-20T08:14:56.574Z,101020.28
2022-12-20T08:17:24.798Z,101016.03
2022-12-20T08:19:52.693Z,101008.28
2022-12-20T08:22:21.390Z,101000.56
2022-12-20T08:24:49.224Z,100995.63
2022-12-20T08:27:17.090Z,100985.69
2022-12-20T08:29:45.270Z,100987.28
2022-12-20T08:32:14.545Z,100982.28
2022-12-20T08:34:42.530Z,100977.09
2022-12-20T08:37:14.701Z,100958.19
2022-12-20T08:39:43.865Z,100971.91
2022-12-20T08:42:12.912Z,100971.06
2022-12-20T08:44:40.638Z,100968.53
2022-12-20T08:47:08.345Z,100960.03
2022-12-20T08:49:39.081Z,100953.19
2022-12-20T08:52:10.399Z,100957.50
2022-12-20T08:54:38.597Z,100950.69
2022-12-20T08:57:06.403Z,100942.19
2022-12-20T08:59:34.220Z,100930.25
2022-12-20T09:02:02.576Z,100926.78
2022-12-20T09:04:30.447Z,100919.13
2022-12-20T09:06:58.333Z,100897.69
2022-12-20T09:09:26.538Z,100905.44
2022-12-20T09:11:54.325Z,100888.31
2022-12-20T09:14:22.211Z,100882.25
2022-12-20T09:16:50.454Z,100873.44
2022-12-20T09:19:18.349Z,100853.53
2022-12-20T09:21:46.211Z,100860.81
2022-12-20T09:24:14.520Z,100848.62
2022-12-20T09:26:42.594Z,100850.09
2022-12-20T09:29:13.477Z,100844.28
2022-12-20T09:31:41.632Z,100841.84
2022-12-20T09:34:10.467Z,100845.12
2022-12-20T09:36:38.609Z,100840.00
2022-12-20T09:39:06.976Z,100837.59
2022-12-20T09:41:39.358Z,100817.78
2022-12-20T09:44:31.107Z,100806.63
2022-12-20T09:47:11.447Z,100796.84
2022-12-20T09:49:46.325Z,100779.00
2022-12-20T09:52:25.891Z,100789.72
2022-12-20T09:55:25.051Z,100779.34
2022-12-20T09:58:05.602Z,100778.16
2022-12-20T10:01:15.185Z,100761.28
2022-12-20T10:03:44.081Z,100769.41
2022-12-20T10:06:18.079Z,100758.31
2022-12-20T10:09:34.601Z,100759.19
2022-12-20T10:12:11.906Z,100746.41
2022-12-20T10:15:16.346Z,100740.72
2022-12-20T10:18:10.280Z,100739.28
2022-12-20T10:21:04.337Z,100727.72
2022-12-20T10:23:45.296Z,100733.16
2022-12-20T10:26:14.426Z,100731.41
2022-12-20T10:28:42.534Z,100731.47
2022-12-20T10:31:20.195Z,100732.22
2022-12-20T10:33:48.421Z,100729.16
2022-12-20T10:36:27.368Z,100723.03
2022-12-20T10:39:01.243Z,100718.47
2022-12-20T10:41:55.830Z,100720.31
2022-12-20T10:44:30.152Z,100707.13
2022-12-20T10:47:01.646Z,100699.81
2022-12-20T10:49:39.001Z,100692.31
2022-12-20T10:52:09.708Z,100690.12
2022-12-20T10:54:42.975Z,100679.16
2022-12-20T10:57:15.017Z,100676.06
2022-12-20T10:59:49.573Z,100675.31
2022-12-20T11:02:42.068Z,100672.16
2022-12-20T11:05:14.846Z,100673.94
2022-12-20T11:10:47.409Z,100673.44
2022-12-20T11:13:27.119Z,100658.06
2022-12-20T11:15:57.929Z,100649.94
2022-12-20T11:18:51.397Z,100649.19
2022-12-20T11:21:43.284Z,100641.69
2022-12-20T11:24:32.589Z,100636.69
2022-12-20T11:27:00.608Z,100633.03
2022-12-20T11:29:43.431Z,100628.75
2022-12-20T11:32:48.899Z,100629.81
2022-12-20T11:35:50.827Z,100627.28
2022-12-20T11:38:19.189Z,100619.81
2022-12-20T11:41:06.193Z,100614.00
2022-12-20T11:44:23.395Z,100607.25
2022-12-20T11:46:43.885Z,100609.00
2022-12-20T11:49:30.494Z,100596.31
2022-12-20T11:52:13.564Z,100586.94
2022-12-20T11:54:50.417Z,100586.94
2022-12-20T11:57:27.082Z,100586.97
2022-12-20T12:00:01.269Z,100570.75
2022-12-20T12:02:58.195Z,100571.59
2022-12-20T12:05:49.385Z,100575.00
2022-12-20T12:08:32.607Z,100579.25
2022-12-20T12:12:04.535Z,100578.41
2022-12-20T12:14:46.890Z,100578.41
2022-12-20T12:17:35.182Z,100581.78
2022-12-20T12:20:20.752Z,100566.50
2022-12-20T12:22:51.496Z,100578.22
2022-12-20T12:25:20.006Z,100575.81
2022-12-20T12:27:48.070Z,100571.88
2022-12-20T12:33:08.929Z,100575.22
2022-12-20T12:35:49.272Z,100569.59
2022-12-20T12:38:43.174Z,100576.72
2022-12-20T12:41:10.851Z,100582.56
2022-12-20T12:43:55.314Z,100575.31
2022-12-20T12:46:32.654Z,100577.09
2022-12-20T12:49:07.195Z,100575.84
2022-12-20T12:51:37.953Z,100557.72
2022-12-20T12:54:28.111Z,100558.84
2022-12-20T12:57:07.283Z,100558.09
2022-12-20T12:59:35.257Z,100561.34
2022-12-20T13:02:04.211Z,100570.47
2022-12-20T13:04:53.542Z,100562.31
2022-12-20T13:07:43.798Z,100568.50
2022-12-20T13:10:18.619Z,100563.69
2022-12-20T13:12:52.870Z,100563.75
2022-12-20T13:15:20.599Z,100567.22
2022-12-20T13:18:07.241Z,100559.13
2022-12-20T13:20:36.483Z,100559.59
2022-12-20T13:23:13.064Z,100561.34
2022-12-20T13:25:49.426Z,100567.31
2022-12-20T13:28:18.259Z,100568.16
2022-12-20T13:33:40.788Z,100563.91
2022-12-20T13:36:23.476Z,100557.94
2022-12-20T13:38:57.363Z,100560.50
2022-12-20T13:41:41.827Z,100567.28
2022-12-20T13:44:24.790Z,100561.34
2022-12-20T13:47:06.484Z,100544.97
2022-12-20T13:49:42.783Z,100542.37
2022-12-20T13:52:19.859Z,100554.28
2022-12-20T13:54:52.724Z,100549.09
2022-12-20T13:57:31.538Z,100553.66
2022-12-20T14:00:07.113Z,100554.31
2022-12-20T14:02:42.337Z,100550.84
2022-12-20T14:05:32.388Z,100557.69
2022-12-20T14:08:16.372Z,100550.22
2022-12-20T14:10:44.553Z,100557.94
2022-12-20T14:13:39.483Z,100546.00
2022-12-20T14:16:26.622Z,100549.34
2022-12-20T14:19:03.726Z,100543.88
2022-12-20T14:21:35.071Z,100551.12
2022-12-20T14:24:04.394Z,100554.44
2022-12-20T14:26:45.038Z,100552.63
2022-12-20T14:29:18.634Z,100541.84
2022-12-20T14:31:50.381Z,100552.19
2022-12-20T14:34:33.072Z,100550.91
2022-12-20T14:37:34.770Z,100540.91
2022-12-20T14:40:05.451Z,100548.63
2022-12-20T14:42:38.240Z,100534.94
2022-12-20T14:45:19.295Z,100555.69
2022-12-20T14:48:13.201Z,100536.38
2022-12-20T14:50:41.629Z,100549.28
2022-12-20T14:53:20.351Z,100548.16
2022-12-20T14:55:48.807Z,100547.88
2022-12-20T14:58:31.563Z,100545.69
2022-12-20T15:01:01.068Z,100556.13
2022-12-20T15:03:29.392Z,100536.88
2022-12-20T15:06:00.990Z,100542.22
2022-12-20T15:08:34.620Z,100541.00
2022-12-20T15:11:23.153Z,100551.50
2022-12-20T15:13:54.776Z,100535.47
2022-12-20T15:16:24.713Z,100530.31
2022-12-20T15:19:02.958Z,100541.81
2022-12-20T15:21:35.845Z,100539.06
2022-12-20T15:24:09.964Z,100539.78
2022-12-20T15:26:38.530Z,100542.31
2022-12-20T15:29:07.489Z,100542.47
2022-12-20T15:31:38.216Z,100544.22
2022-12-20T15:34:22.798Z,100545.66
2022-12-20T15:36:50.692Z,100548.09
2022-12-20T15:39:18.961Z,100532.56
2022-12-20T15:41:49.605Z,100542.94
2022-12-20T15:44:26.512Z,100546.34
2022-12-20T15:46:55.414Z,100545.47
2022-12-20T15:49:26.303Z,100542.03
2022-12-20T15:51:55.289Z,100548.84
2022-12-20T15:54:30.755Z,100547.16
2022-12-20T15:57:03.445Z,100553.16
2022-12-20T16:02:26.769Z,100548.91
2022-12-20T16:04:55.995Z,100536.03
2022-12-20T16:07:24.333Z,100540.25
2022-12-20T16:09:52.167Z,100535.13
2022-12-20T16:12:32.322Z,100536.84
2022-12-20T16:15:00.681Z,100538.50
2022-12-20T16:17:31.203Z,100537.69
2022-12-20T16:19:59.356Z,100532.53
2022-12-20T16:22:27.338Z,100540.25
2022-12-20T16:24:55.967Z,100541.09
2022-12-20T16:27:23.843Z,100531.75
2022-12-20T16:29:54.641Z,100538.50
2022-12-20T16:32:23.015Z,100542.84
2022-12-20T16:34:51.809Z,100535.03
2022-12-20T16:37:20.654Z,100530.78
2022-12-20T16:39:49.295Z,100535.94
2022-12-20T16:42:22.705Z,100532.53
2022-12-20T16:44:54.487Z,100535.09
2022-12-20T16:47:22.678Z,100519.66
2022-12-20T16:49:53.222Z,100522.22
2022-12-20T16:52:23.014Z,100517.88
2022-12-20T16:54:51.611Z,100521.34
2022-12-20T16:57:20.067Z,100531.75
2022-12-20T16:59:51.904Z,100528.34
2022-12-20T17:02:29.643Z,100531.75
2022-12-20T17:04:59.131Z,100531.75
2022-12-20T17:07:27.492Z,100524.94
2022-12-20T17:09:55.399Z,100521.50
2022-12-20T17:12:24.105Z,100518.97
2022-12-20T17:14:52.177Z,100530.00
2022-12-20T17:17:20.325Z,100514.66
2022-12-20T17:19:51.800Z,100523.19
2022-12-20T17:22:26.952Z,100529.25
2022-12-20T17:24:55.168Z,100539.47
2022-12-20T17:27:23.191Z,100538.72
2022-12-20T17:29:51.284Z,100533.59
2022-12-20T17:32:26.312Z,100543.81
2022-12-20T17:34:55.554Z,100537.88
2022-12-20T17:37:27.336Z,100546.47
2022-12-20T17:39:55.334Z,100543.88
2022-12-20T17:42:30.566Z,100549.78
2022-12-20T17:45:02.253Z,100545.53
2022-12-20T17:47:31.952Z,100553.28
2022-12-20T17:49:59.942Z,100544.69
2022-12-20T17:52:27.938Z,100541.22
2022-12-20T17:54:58.951Z,100548.97
2022-12-20T17:57:26.770Z,100547.28
2022-12-20T17:59:54.626Z,100551.38
2022-12-20T18:02:25.721Z,100545.34
2022-12-20T18:04:54.668Z,100543.69
2022-12-20T18:07:22.399Z,100547.22
2022-12-20T18:09:50.477Z,100549.75
2022-12-20T18:12:18.929Z,100544.63
2022-12-20T18:14:48.942Z,100548.03
2022-12-20T18:17:16.824Z,100541.13
2022-12-20T18:19:45.853Z,100541.94
2022-12-20T18:22:14.979Z,100548.09
2022-12-20T18:24:42.847Z,100544.72
2022-12-20T18:27:11.320Z,100530.25
2022-12-20T18:29:39.042Z,100547.31
2022-12-20T18:32:10.277Z,100535.37
2022-12-20T18:34:38.629Z,100535.37
2022-12-20T18:37:06.422Z,100526.06
2022-12-20T18:39:34.410Z,100542.97
2022-12-20T18:42:02.753Z,100542.16
2022-12-20T18:44:36.186Z,100542.28
2022-12-20T18:47:04.860Z,100541.50
2022-12-20T18:49:32.756Z,100534.59
2022-12-20T18:52:01.042Z,100531.22
2022-12-20T18:54:30.629Z,100533.78
2022-12-20T18:56:58.837Z,100538.00
2022-12-20T18:59:28.829Z,100532.84
2022-12-20T19:01:58.053Z,100538.84
2022-12-20T19:04:26.289Z,100532.03
2022-12-20T19:06:54.193Z,100533.72
2022-12-20T19:09:22.677Z,100525.13
2022-12-20T19:11:56.547Z,100532.03
2022-12-20T19:14:26.021Z,100535.97
2022-12-20T19:16:57.321Z,100536.56
2022-12-20T19:19:29.005Z,100536.56
2022-12-20T19:21:57.006Z,100537.41
2022-12-20T19:24:28.135Z,100539.25
2022-12-20T19:26:55.968Z,100541.84
2022-12-20T19:29:23.682Z,100537.50
2022-12-20T19:31:52.054Z,100535.00
2022-12-20T19:34:20.112Z,100539.16
2022-12-20T19:36:49.008Z,100528.78
2022-12-20T19:39:23.731Z,100531.28
2022-12-20T19:42:22.285Z,100531.28
2022-12-20T19:44:44.515Z,100519.19
2022-12-20T19:47:13.479Z,100517.50
2022-12-20T19:49:41.350Z,100519.19
2022-12-20T19:52:09.508Z,100513.19
2022-12-20T19:54:37.280Z,100516.62
2022-12-20T19:57:05.319Z,100515.84
2022-12-20T19:59:33.774Z,100512.47
2022-12-20T20:02:05.012Z,100517.63
2022-12-20T20:04:33.639Z,100517.81
2022-12-20T20:07:03.094Z,100520.06
2022-12-20T20:09:34.659Z,100518.37
2022-12-20T20:12:03.004Z,100532.03
2022-12-20T20:14:33.968Z,100536.50
2022-12-20T20:17:02.281Z,100540.69
2022-12-20T20:19:30.205Z,100540.75
2022-12-20T20:21:58.120Z,100546.53
2022-12-20T20:24:26.374Z,100565.53
2022-12-20T20:26:54.155Z,100566.72
2022-12-20T20:29:25.271Z,100557.91
2022-12-20T20:31:53.577Z,100556.16
2022-12-20T20:34:21.773Z,100557.00
2022-12-20T20:36:49.497Z,100556.03
2022-12-20T20:39:17.616Z,100556.84
2022-12-20T20:41:45.465Z,100561.19
2022-12-20T20:44:13.555Z,100560.53
2022-12-20T20:46:41.974Z,100559.56
2022-12-20T20:49:10.185Z,100561.22
2022-12-20T20:51:38.180Z,100545.00
2022-12-20T20:54:06.387Z,100561.25
2022-12-20T20:56:34.176Z,100563.06
2022-12-20T20:59:06.919Z,100571.66
2022-12-20T21:01:37.269Z,100569.19
2022-12-20T21:04:06.103Z,100577.03
2022-12-20T21:06:41.203Z,100573.75
2022-12-20T21:09:10.243Z,100573.81
2022-12-20T21:11:41.120Z,100573.03
2022-12-20T21:14:09.107Z,100572.34
2022-12-20T21:16:38.035Z,100576.63
2022-12-20T21:19:05.959Z,100574.19
2022-12-20T21:21:33.895Z,100575.09
2022-12-20T21:24:02.192Z,100567.50
2022-12-20T21:26:33.083Z,100567.56
2022-12-20T21:29:01.482Z,100563.38
2022-12-20T21:31:29.824Z,100570.25
2022-12-20T21:33:58.444Z,100563.50
2022-12-20T21:36:26.705Z,100558.34
2022-12-20T21:38:57.201Z,100560.09
2022-12-20T21:41:27.381Z,100568.59
2022-12-20T21:43:57.327Z,100573.69
2022-12-20T21:46:26.714Z,100570.28
2022-12-20T21:48:58.994Z,100561.88
2022-12-20T21:51:31.432Z,100571.28
2022-12-20T21:54:01.215Z,100571.34
2022-12-20T21:56:31.881Z,100571.34
2022-12-20T21:59:00.410Z,100575.66
2022-12-20T22:01:30.044Z,100569.72
2022-12-20T22:04:00.913Z,100559.56
2022-12-20T22:06:29.248Z,100552.75
2022-12-20T22:09:02.648Z,100564.72
2022-12-20T22:11:30.711Z,100565.59
2022-12-20T22:13:58.502Z,100557.12
2022-12-20T22:16:35.242Z,100560.53
2022-12-20T22:19:04.257Z,100567.38
2022-12-20T22:21:33.908Z,100554.63
2022-12-20T22:24:02.381Z,100558.09
2022-12-20T22:26:33.632Z,100560.69
2022-12-20T22:29:04.744Z,100567.47
2022-12-20T22:31:33.928Z,100564.06
2022-12-20T22:34:02.236Z,100569.16
2022-12-20T22:36:33.039Z,100565.72
2022-12-20T22:39:01.286Z,100566.56
2022-12-20T22:41:35.114Z,100555.53
2022-12-20T22:44:06.436Z,100564.91
2022-12-20T22:49:19.848Z,100549.59
2022-12-20T22:52:02.705Z,100547.03
2022-12-20T22:54:39.354Z,100550.44
2022-12-20T22:57:07.211Z,100542.00
2022-12-20T22:59:36.823Z,100547.09
2022-12-20T23:02:05.510Z,100540.34
2022-12-20T23:04:33.505Z,100541.22
2022-12-20T23:07:01.871Z,100538.66
2022-12-20T23:09:29.742Z,100531.84
2022-12-20T23:12:15.913Z,100542.06
2022-12-20T23:15:05.472Z,100545.44
2022-12-20T23:17:33.692Z,100551.38
2022-12-20T23:20:20.510Z,100548.84
2022-12-20T23:22:48.819Z,100545.47
2022-12-20T23:25:19.291Z,100542.06
2022-12-20T23:27:48.958Z,100545.56
2022-12-20T23:30:20.799Z,100544.72
2022-12-20T23:32:52.449Z,100537.94
2022-12-20T23:35:21.697Z,100537.94
2022-12-20T23:37:49.571Z,100531.16
2022-12-20T23:40:20.271Z,100540.53
2022-12-20T23:42:48.530Z,100526.03
2022-12-20T23:45:16.444Z,100532.91
2022-12-20T23:47:44.265Z,100515.88
2022-12-20T23:50:12.523Z,100508.19
2022-12-20T23:52:40.787Z,100532.03
2022-12-20T23:55:08.780Z,100525.22
2022-12-20T23:57:40.271Z,100519.22
